Airfield :
LOGIN :

Register | Disclaimer

   EN    FR    IT 

 










Legend :    VFR   Marginal VFR   IFR   Intensive IFR   Very Intensive IFR
Visi :
Ceiling :
>= 8 km
>= 3000ft
5 to 8 km
1000 to 3000 ft
1500m to 5 km
500 to 1000 ft
800 to 1500m
200 to 500 ft
< 800m
< 200 ft
Symbols :   Thunderstorms  Fog  Heavy snow  Heavy precipitations  Wind > 20 kt
SIGMETs :     Misc.  Thunderstorms  Icing  Turbulence  Mountain Waves  Volcanic Ashes






- Airport Elevation : 238 ft
- IATA code : FAB


EGLF - Farnborough

CURRENT METAR :
  • 201450Z AUTO 03007KT 300V060 9999 NCD 20/07 Q1012

EXPIRED METARs :
  • 201420Z AUTO 05006KT 360V170 9999 NCD 20/07 Q1012
  • 201350Z AUTO 03008KT 340V100 9999 NCD 20/07 Q1013
  • 201320Z AUTO 07006KT 010V130 9999 NCD 20/07 Q1013
  • 201250Z AUTO 05008KT 020V080 9999 FEW049/// 19/07 Q1013
  • 201220Z AUTO 04007KT 310V110 9999 NCD 19/07 Q1013
  • 201150Z AUTO 04007KT 350V080 9999 NCD 19/08 Q1014
  • 201120Z AUTO 04006KT 320V080 9999 NCD 18/08 Q1014
  • 201050Z AUTO 07008KT 030V090 9999 NCD 17/08 Q1014
  • 201020Z AUTO 04007KT 010V080 9999 NCD 17/08 Q1014

TAF TAF EGLF
Valid from the 20 at 15:00 until the 20 at 21:00 UTC


201400Z 2015/2021 04007KT 9999 FEW035
PROB30
TEMPO 2016/2020 5000 SHRA
ATIS : +44 09063 800 400 (*282)



MET'MAP, your aeronautical weather chart ! - Copyright ORBIFLY December 2007 - Disclaimer

ORBIFLY MET'MAP TEAM :

Programming & Development : Alexandra Zaïnal
Original concept : Baudouin d'Aumeries
Technical & hardware support : Manuel Goepfert
Assistance : Marc-Olivier Méhu




SOURCES & CREDITS :

   NOAA